Time;durP1;ratioP1;P1;durP2;ratioP2;P2;SDS_P1;SDS_P2;PMS_P1;PMS_P2;Temp;Humidity;BMP_temperature;BMP_pressure;BME280_temperature;BME280_humidity;BME280_pressure;Samples;Min_cycle;Max_cycle;Signal;HPM_P1;HPM_P2
2022/01/20 00:04:13;;;;;;;38.03;17.63;;;8.70;99.90;;;;;;5041499;28;20114;-74
2022/01/20 00:09:44;;;;;;;36.95;17.50;;;8.50;99.90;;;;;;5048600;28;20522;-74
2022/01/20 00:28:20;;;;;;;37.25;16.00;;;7.80;99.90;;;;;;5048366;28;20029;-74
2022/01/20 00:30:55;;;;;;;28.27;14.20;;;7.70;99.90;;;;;;5043899;28;20059;-73
2022/01/20 00:33:40;;;;;;;30.52;14.65;;;7.60;99.90;;;;;;5037030;28;20029;-74
2022/01/20 00:38:33;;;;;;;30.63;14.32;;;7.40;99.90;;;;;;5048809;28;20111;-75
2022/01/20 00:40:59;;;;;;;31.50;15.20;;;7.30;99.90;;;;;;5049205;28;20021;-74
2022/01/20 00:43:25;;;;;;;35.90;16.45;;;7.20;99.90;;;;;;5049013;28;20041;-73
2022/01/20 00:45:51;;;;;;;49.20;17.05;;;7.10;99.90;;;;;;5044256;28;20543;-73
2022/01/20 00:48:17;;;;;;;31.17;14.25;;;7.10;99.90;;;;;;5048923;28;20028;-73
2022/01/20 00:50:43;;;;;;;34.30;15.35;;;7.00;99.90;;;;;;5047764;28;20030;-73
2022/01/20 00:53:09;;;;;;;31.50;15.43;;;6.90;99.90;;;;;;5049705;28;20039;-73
2022/01/20 00:55:37;;;;;;;27.30;14.07;;;6.90;99.90;;;;;;5047966;28;20032;-74
2022/01/20 00:58:02;;;;;;;102.60;15.60;;;6.80;99.90;;;;;;5044568;28;20017;-73
2022/01/20 01:00:28;;;;;;;49.50;13.65;;;6.80;99.90;;;;;;5046263;28;20041;-73
2022/01/20 01:02:56;;;;;;;216.52;16.15;;;6.70;99.90;;;;;;5047425;28;20028;-73
2022/01/20 01:05:22;;;;;;;142.35;13.25;;;6.70;99.90;;;;;;5050744;28;20044;-73
2022/01/20 01:07:50;;;;;;;73.80;11.35;;;6.60;99.90;;;;;;5048869;28;20025;-73
2022/01/20 01:10:19;;;;;;;52.72;11.02;;;6.60;99.90;;;;;;5040580;28;20115;-73
2022/01/20 01:12:56;;;;;;;22.33;9.82;;;6.50;99.90;;;;;;5046670;28;20495;-73
2022/01/20 01:15:30;;;;;;;16.75;9.15;;;6.40;99.90;;;;;;5043212;28;20035;-73
2022/01/20 01:23:12;;;;;;;;;;;6.20;99.90;;;;;;5048213;28;20037;-73
2022/01/20 01:25:38;;;;;;;18.10;10.07;;;6.10;99.90;;;;;;5046733;28;19909;-73
2022/01/20 01:28:04;;;;;;;20.27;10.23;;;6.10;99.90;;;;;;5048960;28;20037;-73
2022/01/20 01:33:04;;;;;;;17.73;9.55;;;6.10;99.90;;;;;;5047197;28;20037;-73
2022/01/20 01:35:30;;;;;;;20.30;11.45;;;6.10;99.90;;;;;;5049270;28;20441;-73
2022/01/20 01:40:28;;;;;;;21.00;10.10;;;6.00;99.90;;;;;;5044080;28;20017;-73
2022/01/20 01:42:55;;;;;;;20.90;10.50;;;6.00;99.90;;;;;;5049099;28;20060;-73
2022/01/20 01:45:27;;;;;;;17.95;10.57;;;6.00;99.90;;;;;;5047352;28;20035;-73
2022/01/20 01:47:54;;;;;;;23.02;11.13;;;6.00;99.90;;;;;;5042259;28;20029;-73
2022/01/20 01:50:22;;;;;;;20.98;10.57;;;6.00;99.90;;;;;;5035149;28;20026;-73
2022/01/20 01:52:48;;;;;;;17.42;9.98;;;5.90;99.90;;;;;;5037570;28;20053;-73
2022/01/20 01:55:14;;;;;;;17.05;9.00;;;5.90;99.90;;;;;;5043020;28;20029;-73
2022/01/20 01:57:40;;;;;;;20.17;9.57;;;5.90;99.90;;;;;;5042852;28;20022;-73
2022/01/20 02:00:09;;;;;;;29.30;10.32;;;5.90;99.90;;;;;;5045478;28;20183;-73
2022/01/20 02:02:36;;;;;;;25.58;9.68;;;5.90;99.90;;;;;;5046605;28;20033;-72
2022/01/20 02:05:05;;;;;;;24.83;9.10;;;5.90;99.90;;;;;;5038951;28;20044;-73
2022/01/20 02:08:38;;;;;;;28.50;9.30;;;5.90;99.90;;;;;;5046994;28;20021;-73
2022/01/20 02:19:09;;;;;;;23.55;8.18;;;6.10;99.90;;;;;;5042974;28;20043;-73
2022/01/20 02:21:52;;;;;;;23.48;7.07;;;6.20;99.90;;;;;;5046464;28;20484;-73
2022/01/20 02:24:19;;;;;;;19.88;7.47;;;6.20;99.90;;;;;;5046441;28;20060;-74
2022/01/20 02:26:45;;;;;;;21.58;7.57;;;6.20;99.90;;;;;;5046775;28;20036;-73
2022/01/20 02:29:12;;;;;;;30.85;7.82;;;6.20;99.90;;;;;;5046610;28;20029;-74
2022/01/20 02:31:39;;;;;;;29.60;7.18;;;6.20;99.90;;;;;;5044675;28;20056;-73
2022/01/20 02:34:09;;;;;;;26.05;6.72;;;6.10;99.90;;;;;;5044090;28;20529;-73
2022/01/20 02:36:36;;;;;;;22.00;6.22;;;6.10;99.90;;;;;;5045625;28;20454;-73
2022/01/20 02:39:22;;;;;;;19.27;6.03;;;6.10;99.90;;;;;;5037983;28;20033;-73
2022/01/20 02:44:51;;;;;;;18.60;6.15;;;6.00;99.90;;;;;;5029960;28;20048;-73
2022/01/20 02:47:18;;;;;;;20.38;5.63;;;6.00;99.90;;;;;;5041299;28;20032;-73
2022/01/20 02:49:45;;;;;;;16.45;5.78;;;6.00;99.90;;;;;;5046276;28;20439;-73
2022/01/20 02:52:11;;;;;;;27.25;5.20;;;5.90;99.90;;;;;;5044093;28;20183;-73
2022/01/20 02:54:37;;;;;;;17.05;4.68;;;5.90;99.90;;;;;;5043022;28;20021;-73
2022/01/20 02:57:05;;;;;;;20.30;4.85;;;5.90;99.90;;;;;;5037284;28;20369;-73
2022/01/20 02:59:32;;;;;;;20.15;5.07;;;5.90;99.90;;;;;;5044105;28;20032;-73
2022/01/20 03:01:58;;;;;;;17.77;4.45;;;5.90;99.90;;;;;;5034787;28;20037;-73
2022/01/20 03:04:26;;;;;;;19.77;4.47;;;5.90;99.90;;;;;;5037957;28;20076;-73
2022/01/20 03:06:52;;;;;;;19.85;4.85;;;5.90;99.90;;;;;;5035449;28;20033;-73
2022/01/20 03:09:19;;;;;;;18.75;3.67;;;5.80;99.90;;;;;;5047791;28;20069;-73
2022/01/20 03:11:45;;;;;;;19.20;4.00;;;5.80;99.90;;;;;;5050225;28;20440;-73
2022/01/20 03:14:11;;;;;;;25.17;4.10;;;5.80;99.90;;;;;;5047562;28;20052;-73
2022/01/20 03:16:37;;;;;;;16.65;4.28;;;5.80;99.90;;;;;;5045906;28;20492;-72
2022/01/20 03:19:02;;;;;;;22.90;4.57;;;5.80;99.90;;;;;;5044012;28;20030;-73
2022/01/20 03:21:28;;;;;;;20.30;3.83;;;5.70;99.90;;;;;;5047272;28;20028;-73
2022/01/20 03:23:54;;;;;;;23.35;4.00;;;5.70;99.90;;;;;;5046840;28;20037;-73
2022/01/20 03:26:19;;;;;;;23.10;4.60;;;5.70;99.90;;;;;;5041443;28;20021;-73
2022/01/20 03:28:45;;;;;;;14.63;3.60;;;5.70;99.90;;;;;;5052659;28;20029;-73
2022/01/20 03:31:11;;;;;;;22.30;3.42;;;5.60;99.90;;;;;;5043348;28;20392;-74
2022/01/20 03:33:37;;;;;;;19.20;3.90;;;5.60;99.90;;;;;;5042234;28;20063;-74
2022/01/20 03:36:03;;;;;;;13.55;3.85;;;5.60;99.90;;;;;;5050879;28;20025;-73
2022/01/20 03:38:28;;;;;;;18.48;3.80;;;5.60;99.90;;;;;;5054664;28;20025;-73
2022/01/20 03:40:54;;;;;;;15.30;3.63;;;5.50;99.90;;;;;;5046714;28;20078;-73
2022/01/20 03:43:20;;;;;;;17.48;3.95;;;5.50;99.90;;;;;;5044794;28;20043;-73
2022/01/20 03:45:49;;;;;;;16.65;3.65;;;5.50;99.90;;;;;;5046950;28;20045;-73
2022/01/20 03:48:16;;;;;;;21.30;3.70;;;5.40;99.90;;;;;;5045584;28;20020;-73
2022/01/20 03:51:00;;;;;;;24.65;4.65;;;5.40;99.90;;;;;;5051288;28;20053;-73
2022/01/20 03:53:27;;;;;;;16.08;3.20;;;5.40;99.90;;;;;;5051590;28;20069;-74
2022/01/20 03:55:53;;;;;;;20.45;3.80;;;5.30;99.90;;;;;;5049308;28;20032;-73
2022/01/20 03:58:19;;;;;;;22.40;3.90;;;5.30;99.90;;;;;;5045306;28;20024;-73
2022/01/20 04:00:45;;;;;;;16.65;3.63;;;5.30;99.90;;;;;;5051905;28;20036;-73
2022/01/20 04:03:12;;;;;;;14.75;3.75;;;5.30;99.90;;;;;;5049239;28;20408;-73
2022/01/20 04:05:47;;;;;;;18.60;3.60;;;5.20;99.90;;;;;;5050301;28;20025;-73
2022/01/20 04:08:13;;;;;;;18.60;3.85;;;5.20;99.90;;;;;;5047896;28;20040;-73
2022/01/20 04:10:39;;;;;;;17.15;2.92;;;5.10;99.90;;;;;;5040231;28;20037;-73
2022/01/20 04:13:04;;;;;;;15.05;3.17;;;5.10;99.90;;;;;;5046425;28;20111;-73
2022/01/20 04:15:39;;;;;;;11.95;3.20;;;5.10;99.90;;;;;;5044105;28;20374;-73
2022/01/20 04:18:11;;;;;;;17.73;3.67;;;5.10;99.90;;;;;;5047913;28;20068;-73
2022/01/20 04:20:36;;;;;;;14.65;3.30;;;5.00;99.90;;;;;;5048346;28;20028;-72
2022/01/20 04:23:02;;;;;;;12.13;2.80;;;5.00;99.90;;;;;;5048933;28;20029;-73
2022/01/20 04:25:28;;;;;;;12.23;3.03;;;5.00;99.90;;;;;;5048139;28;20025;-73
2022/01/20 04:27:54;;;;;;;15.07;3.38;;;4.90;99.90;;;;;;5047897;28;20071;-73
2022/01/20 04:30:20;;;;;;;12.68;3.10;;;4.90;99.90;;;;;;5050091;28;20033;-73
2022/01/20 04:32:46;;;;;;;13.98;3.28;;;4.90;99.90;;;;;;5047455;28;20798;-73
2022/01/20 04:35:12;;;;;;;13.07;3.10;;;4.80;99.90;;;;;;5037387;28;20026;-73
2022/01/20 04:37:37;;;;;;;13.75;3.60;;;4.80;99.90;;;;;;5043735;28;20020;-73
2022/01/20 04:40:05;;;;;;;18.85;4.90;;;4.80;99.90;;;;;;5046697;28;20146;-73
2022/01/20 04:42:34;;;;;;;19.58;5.75;;;4.70;99.90;;;;;;5048339;28;20028;-72
2022/01/20 04:45:05;;;;;;;13.48;4.18;;;4.70;99.90;;;;;;5046877;28;20029;-73
2022/01/20 04:47:40;;;;;;;16.02;3.50;;;4.70;99.90;;;;;;5047855;28;20070;-73
2022/01/20 04:58:18;;;;;;;12.43;2.55;;;4.50;99.90;;;;;;5049257;28;20044;-73
2022/01/20 05:00:44;;;;;;;11.48;2.83;;;4.40;99.90;;;;;;5045100;28;20026;-73
2022/01/20 05:03:10;;;;;;;13.57;2.90;;;4.40;99.90;;;;;;5047499;28;20068;-73
2022/01/20 05:05:36;;;;;;;11.68;2.70;;;4.30;99.90;;;;;;5048585;28;20017;-72
2022/01/20 05:08:02;;;;;;;15.45;3.28;;;4.20;99.90;;;;;;5047812;28;20036;-72
2022/01/20 05:10:30;;;;;;;10.30;3.05;;;4.20;99.90;;;;;;5042271;28;20112;-73
2022/01/20 05:15:24;;;;;;;11.48;2.50;;;4.20;99.90;;;;;;5047235;28;20048;-74
2022/01/20 05:17:51;;;;;;;12.93;2.63;;;4.20;99.90;;;;;;5034902;28;20025;-74
2022/01/20 05:20:17;;;;;;;8.75;3.00;;;4.10;99.90;;;;;;5047921;28;20029;-74
2022/01/20 05:22:42;;;;;;;7.43;3.13;;;4.10;99.90;;;;;;5044384;28;20052;-74
2022/01/20 05:25:09;;;;;;;8.07;2.75;;;4.10;99.90;;;;;;5044781;28;20040;-74
2022/01/20 05:27:34;;;;;;;6.40;2.65;;;4.00;99.90;;;;;;5043605;28;20024;-74
2022/01/20 05:30:00;;;;;;;9.32;2.60;;;4.00;99.90;;;;;;5042875;28;20045;-73
2022/01/20 05:32:26;;;;;;;10.38;2.60;;;4.00;99.90;;;;;;5047794;28;20443;-75
2022/01/20 05:34:52;;;;;;;6.80;2.78;;;4.00;99.90;;;;;;5042318;28;20071;-74
2022/01/20 05:37:18;;;;;;;5.57;2.50;;;4.00;99.90;;;;;;5048233;28;20225;-70
2022/01/20 05:39:44;;;;;;;9.13;3.17;;;3.90;99.90;;;;;;5037062;28;20032;-71
2022/01/20 05:42:10;;;;;;;11.30;2.70;;;3.90;99.90;;;;;;5041732;28;20033;-71
2022/01/20 05:44:37;;;;;;;11.25;3.33;;;3.90;99.90;;;;;;5049598;28;20097;-74
2022/01/20 05:47:11;;;;;;;14.85;3.40;;;3.90;99.90;;;;;;5055130;28;20017;-75
2022/01/20 05:49:37;;;;;;;12.93;3.20;;;3.90;99.90;;;;;;5046989;28;20079;-74
2022/01/20 05:52:03;;;;;;;12.10;3.15;;;3.90;99.90;;;;;;5043230;28;20041;-71
2022/01/20 05:54:30;;;;;;;15.02;3.33;;;3.90;99.90;;;;;;5045549;28;20021;-72
2022/01/20 05:56:56;;;;;;;10.27;3.10;;;3.90;99.90;;;;;;5045682;28;20115;-71
2022/01/20 05:59:23;;;;;;;11.82;3.60;;;3.90;99.90;;;;;;5040357;28;20494;-72
2022/01/20 06:01:56;;;;;;;10.90;3.28;;;3.90;99.90;;;;;;5046886;28;20116;-71
2022/01/20 06:04:22;;;;;;;14.30;3.30;;;3.90;99.90;;;;;;5041192;28;20057;-70
2022/01/20 06:06:48;;;;;;;24.05;3.83;;;3.90;99.90;;;;;;5042480;28;20084;-71
2022/01/20 06:09:14;;;;;;;14.85;3.65;;;3.90;99.90;;;;;;5041521;28;20392;-71
2022/01/20 06:11:39;;;;;;;14.50;3.50;;;3.90;99.90;;;;;;5046027;28;20041;-71
2022/01/20 06:14:05;;;;;;;10.52;3.58;;;3.90;99.90;;;;;;5048935;28;20025;-71
2022/01/20 06:16:32;;;;;;;12.68;3.35;;;3.90;99.90;;;;;;5050223;28;20059;-72
2022/01/20 06:18:58;;;;;;;16.65;3.53;;;3.90;99.90;;;;;;5048368;28;20029;-72
2022/01/20 06:21:24;;;;;;;15.13;3.97;;;3.90;99.90;;;;;;5054046;28;20032;-71
2022/01/20 06:23:50;;;;;;;13.02;3.47;;;3.90;99.90;;;;;;5046944;28;20025;-71
2022/01/20 06:26:16;;;;;;;13.25;3.95;;;3.90;99.90;;;;;;5035803;28;20028;-73
2022/01/20 06:28:42;;;;;;;19.42;3.97;;;3.90;99.90;;;;;;5045976;28;20029;-72
2022/01/20 06:31:09;;;;;;;16.98;4.18;;;3.80;99.90;;;;;;5052742;28;20029;-71
2022/01/20 06:33:35;;;;;;;14.48;3.40;;;3.80;99.90;;;;;;5043943;28;20083;-72
2022/01/20 06:36:01;;;;;;;17.02;3.45;;;3.80;99.90;;;;;;5049955;28;20029;-72
2022/01/20 06:38:27;;;;;;;15.07;3.45;;;3.80;99.90;;;;;;5046979;28;20041;-71
2022/01/20 06:40:52;;;;;;;14.15;3.35;;;3.80;99.90;;;;;;5047795;28;20498;-72
2022/01/20 06:43:19;;;;;;;19.65;4.13;;;3.80;99.90;;;;;;5052882;28;20068;-72
2022/01/20 06:45:45;;;;;;;17.95;4.07;;;3.70;99.90;;;;;;5041128;28;20032;-71
2022/01/20 06:48:12;;;;;;;17.85;3.97;;;3.70;99.90;;;;;;5047245;28;20036;-72
2022/01/20 06:50:38;;;;;;;20.98;4.03;;;3.70;99.90;;;;;;5042836;28;20029;-71
2022/01/20 06:53:05;;;;;;;14.90;4.13;;;3.70;99.90;;;;;;5049050;28;20091;-72
2022/01/20 06:55:31;;;;;;;11.80;3.80;;;3.60;99.90;;;;;;5042812;28;20025;-71
2022/01/20 06:57:57;;;;;;;16.25;3.78;;;3.60;99.90;;;;;;5044484;28;20029;-72
2022/01/20 07:00:24;;;;;;;11.48;3.70;;;3.60;99.90;;;;;;5046069;28;20036;-72
2022/01/20 07:02:51;;;;;;;63.42;20.77;;;3.50;99.90;;;;;;5030697;28;20147;-72
2022/01/20 07:05:19;;;;;;;50.00;18.63;;;3.50;99.90;;;;;;5037014;28;20021;-72
2022/01/20 07:07:44;;;;;;;37.78;12.32;;;3.50;99.90;;;;;;5042897;28;20120;-71
2022/01/20 07:10:13;;;;;;;24.10;7.65;;;3.50;99.90;;;;;;5039324;28;20112;-72
2022/01/20 07:12:44;;;;;;;18.63;5.38;;;3.40;99.90;;;;;;5034674;28;20127;-71
2022/01/20 07:15:10;;;;;;;18.23;6.30;;;3.40;99.90;;;;;;5041124;28;20416;-71
2022/01/20 07:17:38;;;;;;;25.27;7.97;;;3.40;99.90;;;;;;5030878;28;20044;-72
2022/01/20 07:20:04;;;;;;;43.35;16.80;;;3.40;99.90;;;;;;5034545;28;20443;-71
2022/01/20 07:22:30;;;;;;;26.15;10.52;;;3.30;99.90;;;;;;5041483;28;20055;-71
2022/01/20 07:24:56;;;;;;;11.52;4.20;;;3.30;99.90;;;;;;5042905;28;20030;-71
2022/01/20 07:27:22;;;;;;;16.45;4.15;;;3.20;99.90;;;;;;5031401;28;20018;-71
2022/01/20 07:29:48;;;;;;;15.35;5.18;;;3.20;99.90;;;;;;5045764;28;20023;-72
2022/01/20 07:32:13;;;;;;;14.25;6.07;;;3.20;99.90;;;;;;5043781;28;20072;-72
2022/01/20 07:34:39;;;;;;;14.95;5.93;;;3.10;99.90;;;;;;5042362;28;20484;-71
2022/01/20 07:37:05;;;;;;;18.25;5.47;;;3.10;99.90;;;;;;5042701;28;20091;-72
2022/01/20 07:39:32;;;;;;;15.18;5.07;;;3.10;99.90;;;;;;5043143;28;20021;-72
2022/01/20 07:41:58;;;;;;;14.52;4.60;;;3.10;99.90;;;;;;5046170;28;20108;-72
2022/01/20 07:44:24;;;;;;;10.55;4.18;;;3.10;99.90;;;;;;5045612;28;20408;-72
2022/01/20 07:46:50;;;;;;;14.30;4.43;;;3.10;99.90;;;;;;5035273;28;20072;-72
2022/01/20 07:49:16;;;;;;;9.20;3.70;;;3.10;99.90;;;;;;5034737;28;20065;-72
2022/01/20 07:51:43;;;;;;;23.50;4.50;;;3.10;99.90;;;;;;5033909;28;20055;-72
2022/01/20 07:54:10;;;;;;;51.63;30.40;;;3.10;99.90;;;;;;5044521;28;20017;-72
2022/01/20 07:56:36;;;;;;;32.60;16.95;;;3.10;99.90;;;;;;5044759;28;20191;-72
2022/01/20 07:59:03;;;;;;;80.00;52.97;;;3.10;99.90;;;;;;5047657;28;20068;-72
2022/01/20 08:01:29;;;;;;;29.67;21.58;;;3.10;99.90;;;;;;5047169;28;20107;-72
2022/01/20 08:03:55;;;;;;;19.02;12.57;;;3.10;99.90;;;;;;5046162;28;20107;-72
2022/01/20 08:06:22;;;;;;;12.25;4.75;;;3.10;99.90;;;;;;5045963;28;20025;-71
2022/01/20 08:08:50;;;;;;;14.45;5.53;;;3.20;99.90;;;;;;5046630;28;20044;-71
2022/01/20 08:11:17;;;;;;;13.35;7.22;;;3.20;99.90;;;;;;5047507;28;20033;-72
2022/01/20 08:13:43;;;;;;;19.13;8.73;;;3.20;99.90;;;;;;5046062;28;20043;-72
2022/01/20 08:16:08;;;;;;;21.45;9.90;;;3.30;99.90;;;;;;5045751;28;20027;-72
2022/01/20 08:18:34;;;;;;;12.27;6.45;;;3.40;99.90;;;;;;5046056;28;20037;-72
2022/01/20 08:21:00;;;;;;;10.95;5.55;;;3.70;99.90;;;;;;5045380;28;20021;-72
2022/01/20 08:23:25;;;;;;;14.27;7.43;;;4.30;99.90;;;;;;5042125;28;20037;-72
2022/01/20 08:25:51;;;;;;;17.17;5.10;;;4.90;99.90;;;;;;5034011;28;20104;-72
2022/01/20 08:28:20;;;;;;;13.35;4.63;;;5.40;99.90;;;;;;5033404;28;20052;-72
2022/01/20 08:30:46;;;;;;;47.58;5.00;;;6.20;99.90;;;;;;5044720;28;20057;-72
2022/01/20 08:33:12;;;;;;;16.05;3.90;;;7.20;99.50;;;;;;5045912;28;20108;-72
2022/01/20 08:35:39;;;;;;;209.45;9.18;;;8.10;96.30;;;;;;5045272;28;20033;-72
2022/01/20 08:38:07;;;;;;;17.33;3.67;;;8.90;93.20;;;;;;5047223;28;20483;-72
2022/01/20 08:40:34;;;;;;;8.40;3.42;;;9.70;90.70;;;;;;5044666;28;20071;-73
2022/01/20 08:42:59;;;;;;;7.03;4.00;;;10.40;86.80;;;;;;5044283;28;20021;-72
2022/01/20 08:45:29;;;;;;;7.63;4.50;;;11.10;82.00;;;;;;5045246;28;20079;-72
2022/01/20 08:47:56;;;;;;;7.28;4.00;;;11.90;77.80;;;;;;5044980;28;20040;-72
2022/01/20 08:50:24;;;;;;;11.68;5.10;;;12.60;73.40;;;;;;5045462;28;20380;-71
2022/01/20 08:52:50;;;;;;;10.85;5.63;;;13.10;70.70;;;;;;5045159;28;20068;-72
2022/01/20 08:55:16;;;;;;;8.82;4.75;;;13.80;67.00;;;;;;5037252;28;20058;-71
2022/01/20 08:57:43;;;;;;;11.00;4.57;;;14.30;64.50;;;;;;5035886;28;20091;-71
2022/01/20 09:00:10;;;;;;;10.48;4.95;;;14.90;62.10;;;;;;5047378;28;20021;-72
2022/01/20 09:02:36;;;;;;;13.73;4.10;;;15.40;60.00;;;;;;5047351;28;20029;-71
2022/01/20 09:05:04;;;;;;;12.07;5.10;;;15.50;59.00;;;;;;5044127;28;20388;-72
2022/01/20 09:07:31;;;;;;;10.05;6.05;;;15.20;59.80;;;;;;5035064;28;20052;-71
2022/01/20 09:09:59;;;;;;;9.82;6.05;;;15.30;61.20;;;;;;5038393;28;20571;-71
2022/01/20 09:15:28;;;;;;;10.27;6.38;;;16.80;55.50;;;;;;5043820;28;20033;-72
2022/01/20 09:17:56;;;;;;;10.30;5.93;;;17.80;52.90;;;;;;5035241;28;20033;-72
2022/01/20 09:20:22;;;;;;;12.60;6.25;;;18.70;49.90;;;;;;5050912;28;20025;-72
2022/01/20 09:22:50;;;;;;;8.93;6.15;;;19.40;47.80;;;;;;5045224;28;20029;-72
2022/01/20 09:25:16;;;;;;;9.43;5.85;;;19.90;46.30;;;;;;5045343;28;20112;-72
2022/01/20 09:27:43;;;;;;;10.50;6.70;;;20.40;44.90;;;;;;5042631;28;20029;-72
2022/01/20 09:30:09;;;;;;;12.95;7.35;;;20.80;43.80;;;;;;5047420;28;20033;-72
2022/01/20 09:32:38;;;;;;;12.02;7.95;;;21.00;42.60;;;;;;5046853;28;20037;-72
2022/01/20 09:35:05;;;;;;;12.25;6.90;;;21.20;41.90;;;;;;5036168;28;20051;-72
2022/01/20 09:37:31;;;;;;;11.25;7.47;;;21.60;41.10;;;;;;5035209;28;20064;-72
2022/01/20 09:39:57;;;;;;;11.15;7.90;;;21.90;40.50;;;;;;5039488;28;20052;-72
2022/01/20 09:42:24;;;;;;;8.65;4.00;;;22.00;39.70;;;;;;5046193;28;20025;-72
2022/01/20 09:44:52;;;;;;;13.60;4.15;;;20.70;42.00;;;;;;5041350;28;20091;-72
2022/01/20 09:47:19;;;;;;;14.93;3.92;;;18.50;46.90;;;;;;5047352;28;20056;-72
2022/01/20 09:49:45;;;;;;;12.63;3.72;;;16.80;51.90;;;;;;5048507;28;20025;-72
2022/01/20 09:52:11;;;;;;;13.23;3.60;;;15.60;54.40;;;;;;5041953;28;20044;-72
2022/01/20 09:54:37;;;;;;;12.85;3.85;;;14.80;58.30;;;;;;5043115;28;20056;-72
2022/01/20 09:57:04;;;;;;;15.05;3.85;;;14.10;60.10;;;;;;5048670;28;20079;-72
2022/01/20 09:59:31;;;;;;;12.77;3.80;;;13.70;62.90;;;;;;5044895;28;20392;-72
2022/01/20 10:01:58;;;;;;;11.98;4.53;;;14.00;61.90;;;;;;5046461;28;20037;-72
2022/01/20 10:04:30;;;;;;;17.45;6.28;;;15.90;54.70;;;;;;5042333;28;20020;-72
2022/01/20 10:06:58;;;;;;;19.63;5.97;;;18.40;48.00;;;;;;5042133;28;20041;-72
2022/01/20 10:09:33;;;;;;;14.80;6.03;;;20.00;43.60;;;;;;5044677;28;20049;-72
2022/01/20 10:11:59;;;;;;;17.23;6.63;;;20.70;42.00;;;;;;5031985;28;20485;-72
2022/01/20 10:14:25;;;;;;;14.50;8.38;;;20.00;44.10;;;;;;5045291;28;20025;-72
2022/01/20 10:16:52;;;;;;;17.98;10.20;;;18.80;47.80;;;;;;5046607;28;20048;-73
2022/01/20 10:19:24;;;;;;;18.55;9.73;;;18.00;50.60;;;;;;5035800;28;20025;-72
2022/01/20 10:21:50;;;;;;;31.23;13.77;;;18.30;50.30;;;;;;5039203;28;20052;-73
2022/01/20 10:24:16;;;;;;;15.10;4.20;;;20.40;45.20;;;;;;5047802;28;20087;-72
2022/01/20 10:26:42;;;;;;;18.85;4.65;;;22.70;40.10;;;;;;5041081;28;20041;-73
2022/01/20 10:29:10;;;;;;;16.88;8.55;;;24.20;36.80;;;;;;5046523;28;20472;-73
2022/01/20 10:31:37;;;;;;;11.80;7.68;;;25.20;34.50;;;;;;5035156;28;20095;-72
2022/01/20 10:34:30;;;;;;;15.65;8.15;;;26.00;33.40;;;;;;5036403;28;20065;-72
2022/01/20 10:37:14;;;;;;;17.42;7.07;;;26.60;33.00;;;;;;5039794;28;20107;-72
2022/01/20 10:39:43;;;;;;;14.98;7.05;;;27.30;31.30;;;;;;5044988;28;20025;-72
2022/01/20 10:42:11;;;;;;;15.60;6.30;;;27.90;30.70;;;;;;5033375;28;20075;-72
2022/01/20 10:44:42;;;;;;;16.02;6.28;;;28.40;30.00;;;;;;5047356;28;20414;-72
2022/01/20 10:47:14;;;;;;;16.02;7.47;;;28.80;29.50;;;;;;5037602;28;20034;-72
2022/01/20 10:49:41;;;;;;;24.33;13.55;;;29.20;28.60;;;;;;5046339;28;20057;-72
2022/01/20 10:52:10;;;;;;;16.00;9.30;;;29.10;27.80;;;;;;5039128;28;20520;-72
2022/01/20 10:54:42;;;;;;;19.75;11.75;;;29.10;28.30;;;;;;5039266;28;20036;-72
2022/01/20 10:57:10;;;;;;;19.92;10.52;;;29.50;26.90;;;;;;5046065;28;20033;-72
2022/01/20 10:59:51;;;;;;;17.45;9.60;;;29.10;27.60;;;;;;5043126;28;20036;-72
2022/01/20 11:02:18;;;;;;;;;;;29.30;27.90;;;;;;5049631;28;20040;-72
2022/01/20 11:04:45;;;;;;;20.67;14.82;;;29.80;27.70;;;;;;5035024;28;19944;-72
2022/01/20 11:07:11;;;;;;;19.67;8.25;;;30.30;26.10;;;;;;5034570;28;20033;-72
2022/01/20 11:09:42;;;;;;;17.10;8.73;;;30.00;26.30;;;;;;5035205;28;20395;-73
2022/01/20 11:12:11;;;;;;;17.15;8.30;;;29.50;26.80;;;;;;5040823;28;20464;-73
2022/01/20 11:14:36;;;;;;;16.98;8.70;;;29.70;26.30;;;;;;5041623;28;20025;-72
2022/01/20 11:17:04;;;;;;;19.38;7.65;;;28.50;28.00;;;;;;5034640;28;20075;-73
2022/01/20 11:19:36;;;;;;;15.10;5.32;;;29.20;27.60;;;;;;5031782;28;20037;-73
2022/01/20 11:22:06;;;;;;;19.27;6.03;;;29.60;26.70;;;;;;5042375;28;20509;-73
2022/01/20 11:24:31;;;;;;;;;;;30.20;26.00;;;;;;5043452;28;20021;-73
2022/01/20 11:27:00;;;;;;;16.85;5.55;;;30.30;26.00;;;;;;5029975;28;19913;-73
2022/01/20 11:29:46;;;;;;;16.02;4.90;;;30.90;25.40;;;;;;5046658;28;20154;-73
2022/01/20 11:32:25;;;;;;;14.20;7.05;;;30.60;25.60;;;;;;5052119;28;20037;-73
2022/01/20 11:35:08;;;;;;;17.10;4.35;;;30.80;25.60;;;;;;5044145;28;20110;-73
2022/01/20 11:37:40;;;;;;;16.30;4.43;;;31.00;25.80;;;;;;5043348;28;20036;-72
2022/01/20 11:40:13;;;;;;;14.80;3.80;;;30.90;25.80;;;;;;5046842;28;20037;-72
2022/01/20 11:42:39;;;;;;;12.15;3.47;;;30.60;26.10;;;;;;5048715;28;20025;-71
2022/01/20 11:45:39;;;;;;;12.82;3.83;;;31.70;25.60;;;;;;5050044;28;20021;-72
2022/01/20 11:48:20;;;;;;;13.10;4.30;;;32.90;24.80;;;;;;5028761;28;20073;-72
2022/01/20 11:50:47;;;;;;;13.70;4.38;;;33.50;23.40;;;;;;5024793;28;20052;-73
2022/01/20 11:53:20;;;;;;;11.85;4.00;;;32.50;23.90;;;;;;5027249;28;20354;-73
2022/01/20 11:55:50;;;;;;;15.60;3.83;;;31.60;24.40;;;;;;5026887;28;20026;-72
2022/01/20 11:58:20;;;;;;;15.05;6.72;;;31.00;24.70;;;;;;5021149;28;20036;-72
2022/01/20 12:01:04;;;;;;;28.55;21.33;;;30.40;25.20;;;;;;5019006;28;20363;-71
2022/01/20 12:03:31;;;;;;;15.05;7.80;;;28.70;26.60;;;;;;5027810;28;20116;-72
2022/01/20 12:06:03;;;;;;;14.13;6.72;;;27.10;27.70;;;;;;5024333;28;20564;-71
2022/01/20 12:08:29;;;;;;;19.20;10.45;;;26.50;28.70;;;;;;5021726;28;20037;-72
2022/01/20 12:11:07;;;;;;;21.13;13.30;;;25.20;30.20;;;;;;5028244;28;20428;-72
2022/01/20 12:13:48;;;;;;;20.95;11.80;;;26.90;28.40;;;;;;5024593;28;20042;-72
2022/01/20 12:16:24;;;;;;;53.78;46.03;;;28.50;27.30;;;;;;5028406;28;20036;-72
2022/01/20 12:18:55;;;;;;;19.17;9.93;;;28.90;27.60;;;;;;5025706;28;20029;-72
2022/01/20 12:21:21;;;;;;;11.52;3.38;;;29.90;25.80;;;;;;5026212;28;20545;-72
2022/01/20 12:23:48;;;;;;;15.23;5.80;;;28.20;27.70;;;;;;5029897;28;20036;-73
2022/01/20 12:26:15;;;;;;;15.27;8.75;;;25.90;29.70;;;;;;5050866;28;20558;-73
2022/01/20 12:28:41;;;;;;;19.20;9.65;;;24.60;31.00;;;;;;5048006;28;20032;-71
2022/01/20 12:31:14;;;;;;;15.70;6.68;;;22.70;34.10;;;;;;5045797;28;20029;-72
2022/01/20 12:33:46;;;;;;;13.30;5.00;;;21.20;37.20;;;;;;5046343;28;20039;-72
2022/01/20 12:36:14;;;;;;;12.77;5.03;;;19.90;39.00;;;;;;5039019;28;20504;-71
2022/01/20 12:38:40;;;;;;;13.90;3.90;;;19.30;41.40;;;;;;5049205;28;20119;-72
2022/01/20 12:41:22;;;;;;;17.05;5.00;;;19.80;39.40;;;;;;5047524;28;20043;-71
2022/01/20 12:43:59;;;;;;;15.27;4.22;;;18.40;42.00;;;;;;5046309;28;20041;-71
2022/01/20 12:46:27;;;;;;;12.05;4.35;;;17.10;44.80;;;;;;5046201;28;20028;-70
2022/01/20 12:49:05;;;;;;;15.57;6.88;;;18.90;41.90;;;;;;5044378;28;20076;-72
2022/01/20 12:51:41;;;;;;;14.13;5.05;;;22.10;35.70;;;;;;5037309;28;20420;-71
2022/01/20 12:54:12;;;;;;;12.27;3.80;;;24.20;31.90;;;;;;5038763;28;20120;-72
2022/01/20 12:56:41;;;;;;;12.70;3.72;;;25.50;30.00;;;;;;5033991;28;20067;-71
2022/01/20 12:59:08;;;;;;;21.77;13.90;;;26.20;29.00;;;;;;5051988;28;20501;-71
2022/01/20 13:01:40;;;;;;;12.32;6.80;;;26.70;28.10;;;;;;5037380;28;20464;-72
2022/01/20 13:04:08;;;;;;;11.48;3.63;;;26.60;28.10;;;;;;5039442;28;20159;-72
2022/01/20 13:06:34;;;;;;;11.02;2.90;;;25.60;29.20;;;;;;5046857;28;20484;-73
2022/01/20 13:09:09;;;;;;;11.45;2.90;;;23.50;32.70;;;;;;5032101;28;20499;-72
2022/01/20 13:11:41;;;;;;;16.23;3.03;;;21.80;35.60;;;;;;5049806;28;20041;-72
2022/01/20 13:14:08;;;;;;;13.77;2.95;;;20.70;38.20;;;;;;5048282;28;20029;-72
2022/01/20 13:16:34;;;;;;;14.90;3.08;;;19.80;40.10;;;;;;5039818;28;20059;-71
2022/01/20 13:19:04;;;;;;;14.60;3.30;;;18.90;41.90;;;;;;5040389;28;20025;-72
2022/01/20 13:21:52;;;;;;;15.77;4.07;;;18.00;43.90;;;;;;5044540;28;20025;-71
2022/01/20 13:24:28;;;;;;;11.80;2.80;;;17.30;45.80;;;;;;5047089;28;20036;-71
2022/01/20 13:26:55;;;;;;;12.10;2.85;;;16.60;47.20;;;;;;5033004;28;20121;-71
2022/01/20 13:29:22;;;;;;;14.30;3.53;;;15.90;49.10;;;;;;5036063;28;20033;-71
2022/01/20 13:31:57;;;;;;;10.77;2.70;;;15.30;50.30;;;;;;5036083;28;20029;-71
2022/01/20 13:34:23;;;;;;;13.52;2.67;;;14.90;51.50;;;;;;5036044;28;20033;-71
2022/01/20 13:36:54;;;;;;;11.65;2.47;;;14.70;53.10;;;;;;5036206;28;20057;-71
2022/01/20 13:39:34;;;;;;;12.35;2.70;;;14.70;53.80;;;;;;5035820;28;20083;-71
2022/01/20 13:42:12;;;;;;;14.87;3.83;;;14.80;53.80;;;;;;5031571;28;20033;-70
2022/01/20 13:47:22;;;;;;;13.40;3.03;;;14.50;55.40;;;;;;5034817;28;20380;-70
2022/01/20 13:49:55;;;;;;;13.02;2.90;;;14.20;57.20;;;;;;5044620;28;20021;-70
2022/01/20 13:52:22;;;;;;;12.35;3.20;;;14.00;58.80;;;;;;5042612;28;20057;-71